Time;durP1;ratioP1;P1;durP2;ratioP2;P2;SDS_P1;SDS_P2;PMS_P1;PMS_P2;Temp;Humidity;BMP_temperature;BMP_pressure;BME280_temperature;BME280_humidity;BME280_pressure;Samples;Min_cycle;Max_cycle;Signal;HPM_P1;HPM_P2
2021/07/05 08:15:10;;;;;;;12.03;7.80;;;15.80;95.60;;;;;;5120338;27;20347;-68
2021/07/05 08:17:37;;;;;;;9.03;8.13;;;15.70;95.10;;;;;;5125793;27;20047;-73
2021/07/05 08:20:05;;;;;;;9.70;8.50;;;15.70;95.60;;;;;;5117717;27;20414;-72
2021/07/05 08:22:31;;;;;;;6.80;6.10;;;15.80;96.10;;;;;;5119147;27;20077;-71
2021/07/05 08:24:56;;;;;;;7.43;6.07;;;15.80;96.30;;;;;;5123596;28;20055;-70
2021/07/05 08:27:23;;;;;;;8.03;6.10;;;15.80;96.50;;;;;;5120103;28;20060;-69
2021/07/05 08:29:48;;;;;;;11.83;7.80;;;15.80;96.80;;;;;;5124263;27;20126;-71
2021/07/05 08:32:14;;;;;;;6.93;5.73;;;15.90;97.00;;;;;;5125089;27;20397;-70
2021/07/05 08:34:40;;;;;;;7.70;5.43;;;15.90;97.10;;;;;;5125124;27;20085;-68
2021/07/05 08:37:05;;;;;;;8.00;4.80;;;15.90;97.00;;;;;;5124167;28;20044;-71
2021/07/05 08:39:31;;;;;;;6.80;4.80;;;15.90;96.90;;;;;;5125198;28;20123;-70
2021/07/05 08:41:57;;;;;;;8.43;4.73;;;16.00;97.00;;;;;;5125086;28;20513;-71
2021/07/05 08:44:23;;;;;;;8.00;4.20;;;16.10;97.10;;;;;;5123856;27;20482;-70
2021/07/05 08:46:50;;;;;;;5.50;3.53;;;16.10;97.00;;;;;;5124632;27;20506;-69
2021/07/05 08:49:16;;;;;;;6.43;3.77;;;16.20;96.90;;;;;;5125088;27;20059;-71
2021/07/05 08:51:42;;;;;;;5.67;3.40;;;16.40;96.80;;;;;;5124444;28;20055;-68
2021/07/05 08:54:08;;;;;;;6.50;3.27;;;16.50;96.80;;;;;;5124242;27;20050;-68
2021/07/05 08:56:33;;;;;;;8.37;3.80;;;16.70;96.50;;;;;;5124657;27;20130;-69
2021/07/05 08:58:59;;;;;;;7.17;3.70;;;16.90;96.30;;;;;;5124627;28;20214;-67
2021/07/05 09:01:25;;;;;;;10.07;4.23;;;16.90;96.00;;;;;;5124240;27;20040;-67
2021/07/05 09:03:51;;;;;;;7.40;4.20;;;17.00;95.60;;;;;;5123662;28;20643;-67
2021/07/05 09:06:22;;;;;;;7.57;4.70;;;17.20;95.80;;;;;;5124720;27;20043;-69
2021/07/05 09:08:57;;;;;;;;;;;17.30;95.60;;;;;;5124978;27;20052;-67
2021/07/05 09:11:40;;;;;;;6.57;4.40;;;17.40;94.70;;;;;;5123350;28;20007;-67
2021/07/05 09:14:20;;;;;;;6.23;4.37;;;17.60;95.40;;;;;;5122962;27;20096;-68
2021/07/05 09:16:48;;;;;;;8.70;5.17;;;17.70;95.30;;;;;;5124652;27;20078;-67
2021/07/05 09:19:23;;;;;;;8.97;5.37;;;17.80;95.20;;;;;;5123891;27;20127;-68
2021/07/05 09:21:59;;;;;;;9.70;6.60;;;17.80;94.40;;;;;;5124498;27;20043;-68
2021/07/05 09:24:33;;;;;;;9.57;6.03;;;17.80;94.30;;;;;;5122297;27;20514;-68
2021/07/05 09:27:09;;;;;;;10.37;6.70;;;17.80;93.90;;;;;;5110788;28;20047;-67
2021/07/05 09:29:38;;;;;;;10.33;6.57;;;18.00;94.20;;;;;;5111215;28;20448;-67
2021/07/05 09:32:06;;;;;;;10.87;6.77;;;18.00;93.80;;;;;;5109942;28;20065;-68
2021/07/05 09:34:45;;;;;;;10.87;6.97;;;18.10;93.70;;;;;;5110453;28;20073;-68
2021/07/05 09:37:21;;;;;;;11.63;7.67;;;18.00;93.30;;;;;;5113384;28;20523;-67
2021/07/05 09:40:05;;;;;;;11.37;7.50;;;18.00;93.00;;;;;;5113723;28;20040;-68
2021/07/05 09:42:34;;;;;;;10.00;8.63;;;17.90;93.00;;;;;;5113487;28;20055;-68
2021/07/05 09:45:02;;;;;;;10.43;8.10;;;17.80;93.20;;;;;;5114709;28;20044;-68
2021/07/05 09:47:28;;;;;;;10.47;8.67;;;17.90;93.20;;;;;;5113525;28;20838;-68
2021/07/05 09:49:55;;;;;;;10.83;8.33;;;17.80;93.10;;;;;;5113830;28;20089;-67
2021/07/05 09:52:27;;;;;;;10.87;8.23;;;17.80;92.90;;;;;;5114007;28;20047;-68
2021/07/05 09:54:59;;;;;;;14.17;8.80;;;17.80;92.90;;;;;;5113699;28;20051;-68
2021/07/05 09:57:30;;;;;;;;;;;17.80;93.10;;;;;;5114641;28;20039;-68
2021/07/05 10:00:06;;;;;;;15.03;10.07;;;17.80;92.20;;;;;;5113634;28;19919;-68
2021/07/05 10:02:33;;;;;;;13.77;9.93;;;17.80;92.90;;;;;;5114005;28;20047;-69
2021/07/05 10:05:15;;;;;;;13.50;10.43;;;17.80;92.80;;;;;;5114196;28;20497;-68
2021/07/05 10:07:42;;;;;;;12.30;9.73;;;17.90;92.30;;;;;;5113812;28;20103;-68
2021/07/05 10:10:15;;;;;;;13.77;10.27;;;18.00;92.30;;;;;;5114178;28;20048;-67
2021/07/05 10:13:02;;;;;;;13.60;10.50;;;18.10;92.00;;;;;;5113978;28;20060;-67
2021/07/05 10:15:29;;;;;;;12.37;8.53;;;18.40;91.50;;;;;;5113136;28;20051;-67
2021/07/05 10:17:55;;;;;;;12.40;10.10;;;18.50;91.30;;;;;;5113716;28;20067;-68
2021/07/05 10:20:27;;;;;;;15.17;9.70;;;18.70;91.20;;;;;;5113365;28;20096;-67
2021/07/05 10:22:57;;;;;;;11.80;9.47;;;18.80;90.30;;;;;;5112985;28;20086;-68
2021/07/05 10:25:24;;;;;;;11.40;9.80;;;18.70;90.10;;;;;;5113321;28;20146;-68
2021/07/05 10:27:50;;;;;;;14.97;9.90;;;18.70;90.50;;;;;;5113206;28;20059;-68
2021/07/05 10:30:17;;;;;;;12.23;9.53;;;18.70;90.50;;;;;;5112759;28;20047;-67
2021/07/05 10:32:45;;;;;;;15.80;9.80;;;18.80;90.10;;;;;;5113740;28;20093;-67
2021/07/05 10:35:13;;;;;;;10.83;8.83;;;18.90;89.40;;;;;;5112487;28;20043;-68
2021/07/05 10:38:04;;;;;;;10.90;9.80;;;19.10;89.90;;;;;;5112153;28;20411;-67
2021/07/05 10:40:42;;;;;;;11.88;8.80;;;19.20;88.30;;;;;;5113064;28;20059;-68
2021/07/05 10:43:11;;;;;;;14.40;9.77;;;19.30;88.10;;;;;;5112533;28;20051;-67
2021/07/05 10:45:59;;;;;;;11.57;8.97;;;19.40;87.80;;;;;;5113462;28;20052;-67
2021/07/05 10:48:30;;;;;;;16.47;10.57;;;19.50;86.70;;;;;;5112819;28;20430;-68
2021/07/05 10:50:57;;;;;;;12.18;9.05;;;19.70;85.90;;;;;;5112608;28;20047;-67
2021/07/05 10:53:32;;;;;;;13.00;8.67;;;19.70;85.10;;;;;;5112692;28;20055;-67
2021/07/05 10:56:22;;;;;;;14.20;9.40;;;19.70;83.10;;;;;;5111969;28;20059;-68
2021/07/05 10:58:48;;;;;;;12.60;8.83;;;19.50;83.90;;;;;;5102128;28;20089;-68
2021/07/05 11:01:16;;;;;;;11.07;8.97;;;19.40;84.40;;;;;;5112615;28;20081;-69
2021/07/05 11:03:41;;;;;;;17.73;9.47;;;19.50;84.80;;;;;;5112001;28;20047;-68
2021/07/05 11:06:10;;;;;;;13.03;9.07;;;19.60;85.00;;;;;;5112585;28;20171;-68
2021/07/05 11:08:52;;;;;;;8.97;8.07;;;19.60;83.70;;;;;;5112449;28;20054;-68
2021/07/05 11:11:25;;;;;;;11.17;8.60;;;19.50;82.90;;;;;;5111581;28;20452;-68
2021/07/05 11:14:22;;;;;;;13.40;8.90;;;19.50;83.10;;;;;;5112413;28;20112;-68
2021/07/05 11:17:05;;;;;;;12.33;7.97;;;19.50;81.70;;;;;;5096052;28;20097;-67
2021/07/05 11:19:36;;;;;;;11.00;7.43;;;19.40;82.90;;;;;;5112246;28;20055;-68
2021/07/05 11:22:18;;;;;;;10.57;8.57;;;19.50;82.80;;;;;;5113012;27;20120;-69
2021/07/05 11:24:50;;;;;;;12.47;8.80;;;19.60;83.20;;;;;;5111838;28;20552;-68
2021/07/05 11:27:45;;;;;;;10.50;8.00;;;19.60;82.70;;;;;;5112113;28;20100;-68
2021/07/05 11:30:12;;;;;;;14.40;9.43;;;19.70;82.30;;;;;;5111947;28;20432;-68
2021/07/05 11:32:53;;;;;;;11.87;8.67;;;19.80;83.70;;;;;;5112049;28;20051;-68
2021/07/05 11:35:45;;;;;;;11.27;8.17;;;20.10;83.10;;;;;;5112088;28;20058;-68
2021/07/05 11:38:25;;;;;;;;;;;20.40;81.00;;;;;;5111480;28;20051;-68
2021/07/05 11:41:21;;;;;;;11.60;7.80;;;20.60;77.90;;;;;;5112245;28;19927;-68
2021/07/05 11:43:53;;;;;;;11.03;7.83;;;20.80;80.90;;;;;;5108195;28;20487;-68
2021/07/05 11:46:28;;;;;;;13.50;9.07;;;21.00;79.30;;;;;;5111121;28;20044;-68
2021/07/05 11:49:00;;;;;;;11.33;8.60;;;21.10;78.50;;;;;;5111665;28;20139;-68
2021/07/05 11:51:37;;;;;;;12.85;7.95;;;21.10;77.30;;;;;;5111918;28;20131;-68
2021/07/05 11:54:09;;;;;;;12.17;7.30;;;21.20;76.70;;;;;;5111468;28;20047;-68
2021/07/05 11:56:43;;;;;;;11.30;6.70;;;21.20;75.90;;;;;;5111403;28;20353;-67
2021/07/05 11:59:11;;;;;;;10.65;6.95;;;21.30;74.30;;;;;;5111608;28;20039;-67
2021/07/05 12:01:38;;;;;;;13.55;8.30;;;21.30;74.50;;;;;;5111236;28;20055;-67
2021/07/05 12:04:06;;;;;;;11.57;7.78;;;21.40;74.60;;;;;;5111868;28;20050;-68
2021/07/05 12:06:33;;;;;;;12.17;7.70;;;21.40;74.20;;;;;;5110697;28;20051;-67
2021/07/05 12:09:08;;;;;;;11.60;7.82;;;21.40;74.30;;;;;;5111253;28;20430;-67
2021/07/05 12:11:45;;;;;;;10.63;7.28;;;21.50;74.00;;;;;;5111527;28;20075;-67
2021/07/05 12:14:21;;;;;;;10.82;7.70;;;21.60;74.00;;;;;;5110256;28;20116;-67
2021/07/05 12:16:53;;;;;;;9.27;7.28;;;21.60;74.20;;;;;;5111708;28;20155;-66
2021/07/05 12:19:19;;;;;;;14.93;7.28;;;21.60;74.70;;;;;;5111265;28;20096;-67
2021/07/05 12:22:07;;;;;;;12.23;7.22;;;21.70;74.70;;;;;;5110718;28;20054;-66
2021/07/05 12:24:40;;;;;;;9.02;5.35;;;21.90;72.20;;;;;;5110864;28;20460;-66
2021/07/05 12:27:08;;;;;;;8.63;5.70;;;22.00;71.30;;;;;;5111237;28;20063;-66
2021/07/05 12:29:50;;;;;;;10.38;6.18;;;22.20;71.30;;;;;;5110524;28;20476;-66
2021/07/05 12:32:19;;;;;;;9.68;5.75;;;22.20;70.80;;;;;;5110890;28;20070;-67
2021/07/05 12:34:58;;;;;;;9.55;5.30;;;22.10;70.20;;;;;;5110261;28;20050;-66
2021/07/05 12:37:26;;;;;;;9.90;6.15;;;21.90;69.90;;;;;;5110751;28;20104;-66
2021/07/05 12:40:08;;;;;;;8.73;5.60;;;21.80;70.70;;;;;;5110687;28;20492;-66
2021/07/05 12:42:36;;;;;;;7.13;5.75;;;22.00;71.30;;;;;;5110125;28;20053;-67
2021/07/05 12:45:17;;;;;;;12.13;5.50;;;22.20;71.30;;;;;;5110875;28;20062;-67
2021/07/05 12:47:57;;;;;;;8.50;5.45;;;22.50;68.80;;;;;;5110768;28;20115;-67
2021/07/05 12:50:29;;;;;;;10.18;5.55;;;22.60;67.70;;;;;;5109738;28;20043;-67
2021/07/05 12:53:08;;;;;;;9.82;5.68;;;22.70;67.10;;;;;;5110858;28;20055;-66
2021/07/05 12:55:37;;;;;;;7.03;5.72;;;22.80;65.60;;;;;;5109930;28;20048;-67
2021/07/05 12:58:03;;;;;;;8.52;5.32;;;22.70;66.90;;;;;;5110771;28;20039;-67
2021/07/05 13:00:30;;;;;;;11.55;5.45;;;22.60;67.20;;;;;;5111865;28;20055;-67
2021/07/05 13:03:11;;;;;;;6.55;4.55;;;22.50;66.90;;;;;;5112340;28;20489;-67
2021/07/05 13:05:38;;;;;;;8.10;5.03;;;22.30;64.70;;;;;;5112953;28;20058;-67
2021/07/05 13:08:05;;;;;;;9.55;5.80;;;22.10;66.70;;;;;;5112892;28;20044;-67
2021/07/05 13:10:43;;;;;;;12.77;7.85;;;21.90;67.70;;;;;;5111981;28;20071;-68
2021/07/05 13:13:14;;;;;;;10.70;7.07;;;21.80;68.00;;;;;;5112473;28;20113;-67
2021/07/05 13:15:47;;;;;;;11.82;6.75;;;21.70;69.10;;;;;;5113299;28;20078;-66
2021/07/05 13:18:21;;;;;;;9.90;7.03;;;21.60;69.80;;;;;;5113333;28;20044;-66
2021/07/05 13:20:53;;;;;;;9.15;7.05;;;21.50;70.40;;;;;;5115060;28;20120;-67
2021/07/05 13:23:43;;;;;;;8.07;6.07;;;21.40;70.00;;;;;;5114631;28;20472;-66
2021/07/05 13:26:12;;;;;;;8.75;6.32;;;21.40;69.80;;;;;;5114227;28;20047;-67
2021/07/05 13:28:51;;;;;;;10.40;6.13;;;21.30;70.20;;;;;;5114011;28;20061;-67
2021/07/05 13:31:38;;;;;;;8.95;6.50;;;21.10;68.70;;;;;;5112919;28;20081;-67
2021/07/05 13:34:24;;;;;;;9.15;5.60;;;20.80;69.10;;;;;;5111899;28;20564;-67
2021/07/05 13:36:55;;;;;;;10.93;6.37;;;20.70;70.30;;;;;;5112419;28;20214;-67
2021/07/05 13:39:20;;;;;;;12.27;6.80;;;20.70;71.50;;;;;;5109937;28;20123;-67
2021/07/05 13:41:47;;;;;;;11.03;6.30;;;20.70;71.00;;;;;;5114107;28;20173;-67
2021/07/05 13:44:13;;;;;;;9.82;6.10;;;20.80;70.80;;;;;;5113219;28;20441;-67
2021/07/05 13:46:38;;;;;;;8.77;5.50;;;20.80;70.90;;;;;;5113539;28;20074;-68
2021/07/05 13:49:13;;;;;;;8.40;5.97;;;20.90;70.70;;;;;;5113680;28;20130;-67
2021/07/05 13:51:39;;;;;;;9.90;5.50;;;20.90;69.90;;;;;;5111215;28;20490;-67
2021/07/05 13:54:04;;;;;;;8.82;5.90;;;20.80;69.90;;;;;;5112281;28;20052;-67
2021/07/05 13:56:33;;;;;;;7.80;5.40;;;20.80;70.30;;;;;;5113234;28;20054;-68
2021/07/05 13:59:00;;;;;;;9.18;5.53;;;20.70;69.00;;;;;;5110014;28;20126;-68
2021/07/05 14:01:28;;;;;;;7.93;5.00;;;20.70;69.10;;;;;;5113072;28;20040;-68
2021/07/05 14:03:58;;;;;;;7.43;5.80;;;20.60;69.50;;;;;;5112994;28;20131;-68
2021/07/05 14:06:24;;;;;;;7.73;6.20;;;20.60;69.90;;;;;;5111742;28;20414;-67
2021/07/05 14:08:52;;;;;;;10.40;6.10;;;20.50;70.50;;;;;;5112992;28;20065;-67
2021/07/05 14:11:20;;;;;;;10.27;6.13;;;20.40;70.80;;;;;;5109693;28;20492;-67
2021/07/05 14:13:48;;;;;;;11.30;6.37;;;20.40;71.50;;;;;;5112733;28;20056;-66
2021/07/05 14:16:17;;;;;;;10.47;6.17;;;20.40;72.00;;;;;;5112568;28;20040;-67
2021/07/05 14:18:44;;;;;;;8.10;6.10;;;20.30;71.70;;;;;;5112561;28;20508;-67
2021/07/05 14:21:12;;;;;;;11.50;5.83;;;20.20;72.90;;;;;;5111882;28;20100;-67
2021/07/05 14:23:38;;;;;;;10.80;7.33;;;20.20;72.30;;;;;;5113292;28;20046;-67
2021/07/05 14:26:05;;;;;;;9.00;6.23;;;20.10;72.10;;;;;;5113146;28;20066;-66
2021/07/05 14:28:32;;;;;;;10.03;7.00;;;20.00;72.20;;;;;;5111682;28;20051;-68
2021/07/05 14:30:59;;;;;;;10.77;7.00;;;20.00;72.70;;;;;;5113328;28;20069;-67
2021/07/05 14:33:26;;;;;;;10.30;6.77;;;20.00;72.80;;;;;;5112579;27;20047;-66
2021/07/05 14:35:53;;;;;;;10.40;6.20;;;20.00;72.90;;;;;;5112403;28;20048;-66
2021/07/05 14:38:19;;;;;;;8.83;5.60;;;20.10;72.20;;;;;;5112700;28;20050;-66
2021/07/05 14:40:45;;;;;;;8.97;5.47;;;20.30;72.20;;;;;;5113742;28;20050;-66
2021/07/05 14:43:12;;;;;;;9.00;4.27;;;20.70;71.40;;;;;;5111638;28;20047;-66
2021/07/05 14:45:39;;;;;;;6.63;3.40;;;21.00;68.90;;;;;;5112700;28;20078;-67
2021/07/05 14:48:05;;;;;;;10.13;5.17;;;21.20;67.10;;;;;;5111840;28;20225;-66
2021/07/05 14:50:32;;;;;;;10.33;5.07;;;21.40;66.40;;;;;;5113123;28;20047;-66
2021/07/05 14:53:00;;;;;;;7.13;4.83;;;21.40;66.20;;;;;;5113541;28;20071;-67
2021/07/05 14:55:27;;;;;;;7.40;5.53;;;21.50;66.30;;;;;;5112279;28;20082;-66
2021/07/05 14:57:53;;;;;;;9.88;5.78;;;21.60;66.20;;;;;;5113077;28;20040;-66
2021/07/05 15:00:39;;;;;;;9.73;6.57;;;21.60;66.40;;;;;;5112277;28;20365;-66
2021/07/05 15:03:06;;;;;;;7.63;5.95;;;21.50;66.80;;;;;;5112930;28;20043;-66
2021/07/05 15:05:32;;;;;;;10.50;6.53;;;21.50;68.00;;;;;;5112256;28;20047;-67
2021/07/05 15:07:59;;;;;;;12.27;6.70;;;21.60;66.70;;;;;;5112293;28;20055;-66
2021/07/05 15:10:25;;;;;;;12.40;6.57;;;21.60;66.10;;;;;;5110751;28;20479;-66
2021/07/05 15:12:54;;;;;;;9.63;6.45;;;21.50;66.00;;;;;;5111641;28;20115;-67
2021/07/05 15:15:20;;;;;;;8.85;5.80;;;21.40;66.40;;;;;;5109282;28;20063;-66
2021/07/05 15:17:46;;;;;;;6.93;5.90;;;21.30;67.30;;;;;;5111432;28;20440;-66
2021/07/05 15:20:15;;;;;;;11.55;6.80;;;21.20;67.50;;;;;;5111146;28;20055;-66
2021/07/05 15:22:42;;;;;;;7.90;6.25;;;21.10;67.40;;;;;;5111166;28;20058;-66
2021/07/05 15:25:11;;;;;;;16.98;7.35;;;21.00;67.90;;;;;;5111268;28;20043;-66
2021/07/05 15:27:37;;;;;;;8.35;6.32;;;20.90;68.30;;;;;;5109195;28;20415;-66
2021/07/05 15:30:06;;;;;;;9.97;6.90;;;20.80;68.90;;;;;;5111776;28;20052;-66
2021/07/05 15:32:32;;;;;;;9.82;6.88;;;20.70;69.50;;;;;;5110367;28;20083;-66
2021/07/05 15:34:57;;;;;;;10.13;7.40;;;20.70;70.10;;;;;;5111534;28;20098;-66
2021/07/05 15:37:23;;;;;;;12.97;8.30;;;20.60;71.00;;;;;;5110759;28;20383;-67
2021/07/05 15:39:48;;;;;;;13.20;8.87;;;20.50;71.70;;;;;;5111450;28;20111;-67
2021/07/05 15:42:14;;;;;;;12.63;8.53;;;20.50;73.00;;;;;;5108318;28;20127;-67
2021/07/05 15:44:41;;;;;;;11.43;8.93;;;20.40;73.80;;;;;;5110615;28;20047;-67
2021/07/05 15:47:08;;;;;;;12.23;8.87;;;20.20;75.10;;;;;;5111686;28;20047;-67
2021/07/05 15:49:34;;;;;;;11.87;8.17;;;20.20;76.50;;;;;;5111360;28;20047;-67
2021/07/05 15:52:00;;;;;;;11.50;9.37;;;20.10;76.70;;;;;;5111243;28;20088;-66
2021/07/05 15:54:26;;;;;;;13.63;9.47;;;20.10;77.50;;;;;;5110954;28;20055;-67
2021/07/05 15:56:51;;;;;;;11.93;8.80;;;20.10;78.40;;;;;;5111802;28;20044;-67
2021/07/05 15:59:17;;;;;;;12.63;9.47;;;20.10;78.60;;;;;;5109566;28;20180;-67
2021/07/05 16:01:43;;;;;;;11.33;8.70;;;20.00;78.60;;;;;;5110860;28;20515;-66
2021/07/05 16:04:08;;;;;;;13.20;8.73;;;20.00;79.00;;;;;;5111172;28;20130;-66
2021/07/05 16:06:34;;;;;;;11.17;8.30;;;20.00;79.00;;;;;;5111003;28;20540;-66
2021/07/05 16:09:00;;;;;;;11.57;7.53;;;19.90;78.90;;;;;;5112089;28;20058;-66
2021/07/05 16:11:25;;;;;;;10.93;8.13;;;19.80;79.30;;;;;;5111914;28;20051;-66
2021/07/05 16:13:51;;;;;;;11.43;9.63;;;19.90;79.70;;;;;;5111357;28;20146;-66
2021/07/05 16:16:18;;;;;;;12.37;10.87;;;19.80;80.00;;;;;;5111410;28;20503;-65
2021/07/05 16:18:45;;;;;;;13.07;11.70;;;19.70;80.60;;;;;;5111595;28;20142;-65
2021/07/05 16:21:10;;;;;;;14.40;12.63;;;19.50;81.10;;;;;;5110009;28;20071;-65
2021/07/05 16:23:36;;;;;;;14.80;13.40;;;19.40;81.50;;;;;;5110834;28;20070;-65
2021/07/05 16:26:02;;;;;;;15.30;13.80;;;19.30;82.10;;;;;;5111148;28;20518;-66
2021/07/05 16:28:28;;;;;;;17.57;15.40;;;19.20;82.50;;;;;;5110093;28;20443;-66
2021/07/05 16:30:54;;;;;;;16.43;14.83;;;19.00;82.60;;;;;;5111479;28;20381;-66
2021/07/05 16:33:23;;;;;;;15.93;14.10;;;18.90;82.80;;;;;;5110844;28;20143;-66
2021/07/05 16:35:49;;;;;;;18.10;16.20;;;18.70;83.20;;;;;;5112007;28;20043;-66
2021/07/05 16:38:17;;;;;;;17.40;15.57;;;18.70;83.90;;;;;;5114804;28;20495;-66
2021/07/05 16:40:43;;;;;;;19.57;16.53;;;18.60;84.20;;;;;;5113688;28;20499;-66
2021/07/05 16:43:08;;;;;;;18.70;16.87;;;18.60;84.60;;;;;;5114598;28;20509;-65
2021/07/05 16:45:34;;;;;;;20.13;18.00;;;18.50;84.80;;;;;;5114710;28;20054;-66
2021/07/05 16:48:03;;;;;;;18.60;16.57;;;18.40;85.10;;;;;;5114260;28;20132;-66
2021/07/05 16:50:30;;;;;;;20.03;18.17;;;18.40;85.30;;;;;;5112750;28;20436;-67
2021/07/05 16:52:56;;;;;;;20.07;18.17;;;18.40;85.40;;;;;;5114850;28;20118;-66
2021/07/05 16:55:24;;;;;;;21.97;17.60;;;18.40;85.60;;;;;;5113667;28;20039;-67
2021/07/05 16:57:50;;;;;;;19.57;17.43;;;18.40;85.90;;;;;;5114704;28;20043;-66
2021/07/05 17:00:20;;;;;;;18.53;15.67;;;18.50;86.10;;;;;;5114827;28;20519;-66
2021/07/05 17:02:52;;;;;;;19.97;18.10;;;18.50;86.10;;;;;;5113713;28;20047;-66
2021/07/05 17:05:19;;;;;;;19.77;17.43;;;18.50;86.30;;;;;;5114686;27;20125;-66
2021/07/05 17:07:45;;;;;;;18.57;16.90;;;18.50;86.50;;;;;;5114542;28;20055;-66
2021/07/05 17:10:12;;;;;;;18.33;16.53;;;18.40;86.90;;;;;;5114306;28;20046;-66
2021/07/05 17:12:39;;;;;;;17.63;15.87;;;18.40;86.90;;;;;;5114385;28;20504;-66
2021/07/05 17:15:06;;;;;;;16.93;15.23;;;18.40;86.70;;;;;;5114587;28;20061;-66
2021/07/05 17:17:31;;;;;;;18.10;15.60;;;18.40;86.70;;;;;;5113673;28;20055;-66
2021/07/05 17:19:57;;;;;;;18.40;16.37;;;18.50;86.90;;;;;;5114728;28;20051;-66
2021/07/05 17:22:23;;;;;;;16.90;15.10;;;18.50;86.70;;;;;;5113613;28;20537;-66
2021/07/05 17:24:48;;;;;;;17.97;16.00;;;18.50;86.80;;;;;;5113878;28;20054;-66
2021/07/05 17:27:14;;;;;;;20.07;15.23;;;18.50;86.80;;;;;;5114126;28;20039;-66
2021/07/05 17:29:40;;;;;;;17.27;15.53;;;18.60;86.90;;;;;;5114510;28;20101;-66
2021/07/05 17:32:06;;;;;;;15.90;14.27;;;18.60;86.90;;;;;;5113292;28;20556;-66
2021/07/05 17:34:33;;;;;;;18.07;16.13;;;18.60;86.70;;;;;;5113582;28;20047;-67
2021/07/05 17:36:59;;;;;;;15.70;13.50;;;18.70;86.50;;;;;;5113528;28;20044;-67
2021/07/05 17:39:26;;;;;;;16.20;13.83;;;18.70;86.30;;;;;;5113185;28;20442;-67
2021/07/05 17:41:52;;;;;;;16.50;14.77;;;18.70;86.10;;;;;;5114289;28;20456;-67
2021/07/05 17:44:18;;;;;;;15.80;13.50;;;18.70;86.00;;;;;;5113278;28;20054;-67
2021/07/05 17:46:43;;;;;;;14.07;12.60;;;18.80;85.90;;;;;;5113739;28;20040;-67
2021/07/05 17:49:10;;;;;;;16.47;13.83;;;18.80;85.60;;;;;;5114248;28;20054;-67
2021/07/05 17:51:36;;;;;;;14.93;13.20;;;18.90;85.30;;;;;;5113797;28;20040;-68
2021/07/05 17:54:02;;;;;;;17.33;13.67;;;18.90;85.30;;;;;;5114643;28;20051;-67
2021/07/05 17:56:31;;;;;;;15.37;12.97;;;19.00;84.70;;;;;;5114672;28;20047;-67
2021/07/05 17:58:57;;;;;;;18.17;13.10;;;19.20;84.10;;;;;;5114107;28;20055;-68
2021/07/05 18:01:22;;;;;;;14.43;12.03;;;19.30;83.20;;;;;;5113677;28;20263;-67
2021/07/05 18:03:48;;;;;;;15.70;12.77;;;19.30;83.00;;;;;;5113957;28;20528;-67
2021/07/05 18:06:14;;;;;;;12.97;11.57;;;19.40;82.70;;;;;;5112955;28;20058;-67
2021/07/05 18:08:43;;;;;;;12.57;11.07;;;19.50;82.40;;;;;;5109939;28;20074;-67
2021/07/05 18:11:12;;;;;;;11.83;10.63;;;19.50;82.70;;;;;;5109546;28;20059;-66
2021/07/05 18:13:40;;;;;;;11.77;9.30;;;19.60;82.90;;;;;;5109267;28;20124;-67
2021/07/05 18:16:07;;;;;;;16.10;10.73;;;19.60;83.30;;;;;;5109893;28;20044;-67
2021/07/05 18:18:32;;;;;;;12.87;10.13;;;19.60;83.10;;;;;;5110220;28;20055;-70
2021/07/05 18:20:58;;;;;;;11.73;9.50;;;19.60;82.70;;;;;;5109925;28;20040;-68
2021/07/05 18:23:24;;;;;;;11.40;10.17;;;19.70;82.20;;;;;;5110031;28;20048;-68
2021/07/05 18:25:53;;;;;;;11.17;9.60;;;19.80;82.20;;;;;;5110077;28;20515;-69
2021/07/05 18:28:19;;;;;;;12.40;9.47;;;19.80;81.70;;;;;;5109810;28;20047;-66
2021/07/05 18:30:45;;;;;;;13.73;8.60;;;19.70;81.20;;;;;;5110078;28;20061;-65
2021/07/05 18:33:11;;;;;;;11.10;8.80;;;19.70;81.20;;;;;;5109347;28;20104;-67
2021/07/05 18:35:37;;;;;;;10.83;9.07;;;19.60;80.90;;;;;;5109944;28;20395;-67
2021/07/05 18:38:02;;;;;;;9.70;7.57;;;19.60;81.10;;;;;;5110163;28;20044;-67
2021/07/05 18:40:28;;;;;;;12.27;7.30;;;19.50;81.40;;;;;;5108396;28;20055;-66
2021/07/05 18:42:54;;;;;;;10.93;7.97;;;19.50;81.90;;;;;;5109631;28;20479;-66
2021/07/05 18:45:22;;;;;;;10.17;7.70;;;19.40;82.50;;;;;;5109762;28;20047;-67
2021/07/05 18:47:48;;;;;;;8.27;7.47;;;19.30;83.00;;;;;;5108547;28;20463;-66
2021/07/05 18:50:17;;;;;;;11.00;8.37;;;19.20;83.30;;;;;;5109190;28;20085;-66
2021/07/05 18:52:43;;;;;;;9.33;7.87;;;19.20;84.10;;;;;;5109174;28;20059;-67
2021/07/05 18:55:11;;;;;;;12.63;9.60;;;19.10;84.70;;;;;;5108817;28;20384;-67
2021/07/05 18:57:37;;;;;;;13.83;10.53;;;19.00;84.70;;;;;;5108736;28;20043;-66
2021/07/05 19:00:08;;;;;;;14.03;9.60;;;19.00;84.90;;;;;;5109609;28;20051;-66
2021/07/05 19:02:34;;;;;;;;;;;18.90;85.20;;;;;;5111043;28;20115;-66
2021/07/05 19:05:01;;;;;;;14.40;10.17;;;18.80;84.90;;;;;;5113184;28;20378;-66
2021/07/05 19:07:27;;;;;;;12.37;11.03;;;18.80;86.50;;;;;;5112888;28;20050;-66
2021/07/05 19:09:53;;;;;;;10.90;9.70;;;18.70;87.10;;;;;;5112337;28;20047;-66
2021/07/05 19:12:18;;;;;;;12.93;10.77;;;18.60;86.80;;;;;;5113061;28;20047;-66
2021/07/05 19:14:44;;;;;;;14.43;12.30;;;18.50;87.20;;;;;;5112707;28;20395;-66
2021/07/05 19:17:09;;;;;;;14.63;12.47;;;18.40;87.50;;;;;;5112450;28;20188;-67
2021/07/05 19:19:35;;;;;;;14.83;13.23;;;18.30;87.80;;;;;;5112563;28;20048;-66
2021/07/05 19:22:01;;;;;;;18.43;13.20;;;18.30;88.30;;;;;;5112341;28;20092;-66
2021/07/05 19:24:26;;;;;;;15.60;14.00;;;18.20;88.70;;;;;;5111064;28;20052;-65
2021/07/05 19:26:53;;;;;;;16.10;14.23;;;18.10;89.10;;;;;;5112054;28;20082;-65
2021/07/05 19:29:19;;;;;;;16.37;13.57;;;18.00;89.40;;;;;;5110322;28;20509;-65
2021/07/05 19:31:45;;;;;;;15.63;14.23;;;18.00;89.70;;;;;;5110931;28;20094;-66
2021/07/05 19:34:12;;;;;;;16.37;14.33;;;17.90;89.90;;;;;;5110624;28;20079;-65
2021/07/05 19:36:38;;;;;;;19.33;17.37;;;17.90;90.00;;;;;;5110597;28;20047;-65
2021/07/05 19:39:04;;;;;;;19.37;17.60;;;17.90;90.10;;;;;;5110884;28;20047;-65
2021/07/05 19:41:30;;;;;;;17.87;15.97;;;17.90;90.20;;;;;;5110849;28;20040;-66
2021/07/05 19:43:56;;;;;;;17.13;15.63;;;17.80;90.20;;;;;;5109921;28;20039;-65
2021/07/05 19:46:24;;;;;;;18.73;16.93;;;17.80;90.40;;;;;;5111005;28;20041;-66
2021/07/05 19:48:50;;;;;;;18.00;16.13;;;17.80;90.50;;;;;;5110889;28;20352;-66
2021/07/05 19:51:19;;;;;;;20.47;18.27;;;17.80;90.80;;;;;;5110156;28;20055;-66
2021/07/05 19:53:44;;;;;;;20.73;17.47;;;17.70;90.70;;;;;;5110610;28;20414;-66
2021/07/05 19:56:10;;;;;;;19.03;17.27;;;17.70;90.70;;;;;;5110556;28;20051;-66
2021/07/05 19:58:36;;;;;;;20.63;18.00;;;17.70;90.70;;;;;;5109459;28;20145;-66
2021/07/05 20:01:03;;;;;;;15.97;14.47;;;17.70;90.80;;;;;;5110987;28;20151;-66
2021/07/05 20:03:29;;;;;;;17.97;15.50;;;17.70;90.80;;;;;;5110391;28;20047;-66
2021/07/05 20:05:55;;;;;;;16.70;15.17;;;17.60;90.90;;;;;;5107738;28;20689;-66
2021/07/05 20:08:20;;;;;;;19.60;17.13;;;17.60;91.00;;;;;;5109618;28;20092;-66
2021/07/05 20:10:46;;;;;;;19.90;18.00;;;17.50;91.20;;;;;;5110002;28;20044;-66
2021/07/05 20:13:12;;;;;;;20.83;18.80;;;17.50;91.30;;;;;;5108639;28;20059;-66
2021/07/05 20:15:39;;;;;;;20.63;18.60;;;17.50;91.30;;;;;;5110612;28;20051;-66
2021/07/05 20:18:06;;;;;;;19.03;17.33;;;17.40;91.40;;;;;;5110502;28;20040;-67
2021/07/05 20:20:31;;;;;;;20.57;18.70;;;17.40;91.50;;;;;;5109624;28;20165;-66
2021/07/05 20:22:57;;;;;;;22.67;17.83;;;17.40;91.60;;;;;;5109960;28;20091;-65
2021/07/05 20:25:26;;;;;;;17.10;14.47;;;17.40;91.70;;;;;;5110251;28;20126;-66
2021/07/05 20:27:53;;;;;;;19.47;17.10;;;17.40;91.70;;;;;;5108473;28;20038;-65
2021/07/05 20:30:19;;;;;;;23.30;19.67;;;17.30;91.80;;;;;;5110019;28;20039;-65
2021/07/05 20:32:45;;;;;;;20.30;18.30;;;17.30;91.90;;;;;;5108958;28;20044;-66
2021/07/05 20:35:12;;;;;;;23.43;18.57;;;17.20;92.40;;;;;;5109799;28;20052;-66
2021/07/05 20:37:37;;;;;;;20.83;18.97;;;17.20;92.10;;;;;;5110231;28;20051;-65
2021/07/05 20:40:06;;;;;;;22.60;20.20;;;17.20;92.10;;;;;;5109390;28;20082;-66
2021/07/05 20:42:32;;;;;;;20.40;18.43;;;17.20;92.20;;;;;;5109550;28;20451;-66
2021/07/05 20:44:58;;;;;;;23.00;17.73;;;17.20;92.30;;;;;;5110480;28;20102;-65
2021/07/05 20:47:24;;;;;;;19.70;17.80;;;17.20;92.30;;;;;;5109022;28;20507;-66
2021/07/05 20:49:50;;;;;;;22.07;20.07;;;17.10;92.30;;;;;;5110062;28;20069;-66
2021/07/05 20:52:15;;;;;;;22.87;20.67;;;17.10;92.40;;;;;;5109630;28;20168;-65
2021/07/05 20:54:42;;;;;;;21.33;18.33;;;17.10;92.50;;;;;;5109121;28;20092;-65
2021/07/05 20:57:07;;;;;;;22.07;19.00;;;17.10;92.60;;;;;;5110399;28;20131;-66
2021/07/05 20:59:33;;;;;;;22.63;20.50;;;17.00;92.60;;;;;;5109903;28;20508;-66
2021/07/05 21:02:04;;;;;;;19.03;17.23;;;17.00;92.60;;;;;;5109833;28;20071;-66